Time;durP1;ratioP1;P1;durP2;ratioP2;P2;SDS_P1;SDS_P2;PMS_P1;PMS_P2;Temp;Humidity;BMP_temperature;BMP_pressure;BME280_temperature;BME280_humidity;BME280_pressure;Samples;Min_cycle;Max_cycle;Signal;HPM_P1;HPM_P2
2023/09/30 00:00:44;;;;;;;10.47;8.30;;;18.20;99.90;;;;;;5088642;28;20460;-80
2023/09/30 00:03:13;;;;;;;9.43;8.30;;;18.20;99.90;;;;;;5087424;28;20712;-81
2023/09/30 00:05:38;;;;;;;11.37;8.90;;;18.10;99.90;;;;;;5087273;28;20442;-81
2023/09/30 00:08:04;;;;;;;9.10;8.10;;;18.10;99.90;;;;;;5088857;28;20767;-80
2023/09/30 00:10:30;;;;;;;12.23;8.70;;;18.10;99.90;;;;;;5087601;28;20292;-80
2023/09/30 00:12:57;;;;;;;10.63;8.53;;;18.10;99.90;;;;;;5089042;28;20437;-81
2023/09/30 00:15:23;;;;;;;14.53;8.23;;;18.00;99.90;;;;;;5088774;28;20556;-80
2023/09/30 00:17:48;;;;;;;11.20;8.47;;;18.00;99.90;;;;;;5087133;28;20469;-80
2023/09/30 00:20:14;;;;;;;11.63;8.70;;;18.10;99.90;;;;;;5088954;28;20445;-81
2023/09/30 00:22:41;;;;;;;12.20;9.20;;;18.10;99.90;;;;;;5088874;28;20242;-81
2023/09/30 00:25:07;;;;;;;10.77;9.13;;;18.10;99.90;;;;;;5086932;28;20426;-81
2023/09/30 00:27:33;;;;;;;10.03;8.37;;;18.10;99.90;;;;;;5088742;28;20515;-80
2023/09/30 00:29:59;;;;;;;11.10;8.80;;;18.10;99.90;;;;;;5088120;28;20445;-80
2023/09/30 00:32:25;;;;;;;10.60;8.07;;;18.00;99.90;;;;;;5088841;28;20503;-80
2023/09/30 00:34:52;;;;;;;11.30;8.80;;;17.90;99.90;;;;;;5086340;28;20694;-81
2023/09/30 00:37:18;;;;;;;9.77;8.50;;;17.90;99.90;;;;;;5087433;28;20175;-80
2023/09/30 00:39:44;;;;;;;11.50;8.80;;;17.90;99.90;;;;;;5087107;28;20443;-81
2023/09/30 00:42:10;;;;;;;13.50;9.10;;;17.90;99.90;;;;;;5088443;28;20529;-80
2023/09/30 00:44:36;;;;;;;12.67;9.40;;;17.90;99.90;;;;;;5086910;28;20478;-80
2023/09/30 00:47:02;;;;;;;11.70;10.07;;;17.80;99.90;;;;;;5087571;28;20852;-81
2023/09/30 00:49:29;;;;;;;14.00;9.03;;;17.80;99.90;;;;;;5086680;28;20204;-81
2023/09/30 00:51:55;;;;;;;9.50;8.00;;;17.70;99.90;;;;;;5088061;28;20647;-81
2023/09/30 00:54:24;;;;;;;10.67;8.47;;;17.70;99.90;;;;;;5088038;28;20493;-80
2023/09/30 00:56:52;;;;;;;11.00;8.00;;;17.60;99.90;;;;;;5088100;28;20480;-81
2023/09/30 00:59:19;;;;;;;11.20;8.40;;;17.60;99.90;;;;;;5085532;28;20469;-80
2023/09/30 01:01:46;;;;;;;10.43;8.93;;;17.60;99.90;;;;;;5088083;28;20869;-80
2023/09/30 01:04:12;;;;;;;9.97;8.40;;;17.60;99.90;;;;;;5087313;28;20405;-79
2023/09/30 01:06:39;;;;;;;12.67;9.53;;;17.60;99.90;;;;;;5088114;28;20977;-80
2023/09/30 01:09:05;;;;;;;11.20;8.73;;;17.50;99.90;;;;;;5085706;28;20696;-80
2023/09/30 01:11:31;;;;;;;11.27;8.00;;;17.50;99.90;;;;;;5086630;28;20734;-80
2023/09/30 01:13:57;;;;;;;11.57;8.83;;;17.60;99.90;;;;;;5087196;28;20406;-80
2023/09/30 01:16:23;;;;;;;11.50;9.10;;;17.60;99.90;;;;;;5087588;28;20220;-80
2023/09/30 01:18:49;;;;;;;9.47;8.40;;;17.50;99.90;;;;;;5085400;28;20471;-79
2023/09/30 01:21:14;;;;;;;9.07;8.00;;;17.50;99.90;;;;;;5088069;28;20939;-80
2023/09/30 01:23:40;;;;;;;13.27;8.87;;;17.50;99.90;;;;;;5087740;28;20239;-80
2023/09/30 01:26:09;;;;;;;9.53;8.13;;;17.50;99.90;;;;;;5087603;28;20473;-80
2023/09/30 01:28:35;;;;;;;11.57;8.23;;;17.50;99.90;;;;;;5087132;28;20546;-81
2023/09/30 01:31:01;;;;;;;10.17;9.00;;;17.50;99.90;;;;;;5087231;28;20603;-80
2023/09/30 01:33:28;;;;;;;12.90;9.10;;;17.50;99.90;;;;;;5087518;28;20482;-81
2023/09/30 01:35:54;;;;;;;13.03;9.37;;;17.50;99.90;;;;;;5086343;28;20444;-82
2023/09/30 01:38:20;;;;;;;15.23;9.50;;;17.50;99.90;;;;;;5085255;28;21005;-81
2023/09/30 01:40:46;;;;;;;12.13;9.40;;;17.50;99.90;;;;;;5086882;28;20441;-82
2023/09/30 01:43:16;;;;;;;9.70;8.13;;;17.50;99.90;;;;;;5085551;28;20627;-80
2023/09/30 01:45:42;;;;;;;10.50;8.63;;;17.50;99.90;;;;;;5086904;28;20618;-81
2023/09/30 01:48:10;;;;;;;10.67;8.53;;;17.50;99.90;;;;;;5086893;28;20750;-81
2023/09/30 01:50:37;;;;;;;10.63;9.50;;;17.50;99.90;;;;;;5085505;28;20425;-81
2023/09/30 01:53:04;;;;;;;11.60;9.63;;;17.50;99.90;;;;;;5085336;28;20697;-81
2023/09/30 01:55:30;;;;;;;11.00;8.70;;;17.50;99.90;;;;;;5087033;28;20440;-80
2023/09/30 01:57:55;;;;;;;12.47;9.47;;;17.40;99.90;;;;;;5086102;28;20461;-80
2023/09/30 02:00:21;;;;;;;9.43;8.33;;;17.40;99.90;;;;;;5085703;28;20950;-81
2023/09/30 02:02:46;;;;;;;11.17;9.43;;;17.30;99.90;;;;;;5085427;28;20241;-80
2023/09/30 02:05:13;;;;;;;13.70;9.43;;;17.30;99.90;;;;;;5084780;28;20197;-81
2023/09/30 02:07:38;;;;;;;14.90;10.17;;;17.40;99.90;;;;;;5086911;28;20264;-79
2023/09/30 02:10:05;;;;;;;10.97;9.23;;;17.40;99.90;;;;;;5084849;28;20478;-80
2023/09/30 02:12:30;;;;;;;12.30;9.87;;;17.40;99.90;;;;;;5085316;28;20195;-80
2023/09/30 02:14:58;;;;;;;10.73;9.17;;;17.40;99.90;;;;;;5086385;28;20425;-79
2023/09/30 02:17:24;;;;;;;11.50;8.70;;;17.40;99.90;;;;;;5084888;28;20257;-80
2023/09/30 02:19:49;;;;;;;13.63;9.47;;;17.40;99.90;;;;;;5084682;28;20979;-80
2023/09/30 02:22:15;;;;;;;14.10;9.97;;;17.30;99.90;;;;;;5086689;28;20649;-81
2023/09/30 02:24:41;;;;;;;9.13;7.63;;;17.30;99.90;;;;;;5086433;28;20704;-80
2023/09/30 02:27:07;;;;;;;11.63;9.00;;;17.30;99.90;;;;;;5084909;28;20177;-79
2023/09/30 02:29:33;;;;;;;10.10;8.80;;;17.30;99.90;;;;;;5085999;28;20428;-80
2023/09/30 02:31:59;;;;;;;11.57;9.57;;;17.20;99.90;;;;;;5086313;28;20729;-79
2023/09/30 02:34:25;;;;;;;10.53;8.43;;;17.20;99.90;;;;;;5086152;28;20208;-79
2023/09/30 02:36:51;;;;;;;13.00;9.40;;;17.20;99.90;;;;;;5085649;28;20169;-79
2023/09/30 02:39:17;;;;;;;11.63;9.50;;;17.10;99.90;;;;;;5085159;28;20688;-80
2023/09/30 02:41:43;;;;;;;11.27;9.33;;;17.10;99.90;;;;;;5086706;28;20490;-80
2023/09/30 02:44:09;;;;;;;13.10;9.47;;;17.00;99.90;;;;;;5084441;28;20750;-80
2023/09/30 02:46:35;;;;;;;11.37;9.60;;;17.00;99.90;;;;;;5086615;28;20902;-79
2023/09/30 02:49:03;;;;;;;12.47;9.73;;;17.00;99.90;;;;;;5085440;28;20594;-79
2023/09/30 02:51:30;;;;;;;11.50;8.93;;;17.00;99.90;;;;;;5086299;28;20214;-79
2023/09/30 02:53:56;;;;;;;12.27;9.60;;;17.00;99.90;;;;;;5084249;28;20422;-80
2023/09/30 02:56:24;;;;;;;10.57;9.47;;;17.00;99.90;;;;;;5084416;28;21025;-80
2023/09/30 02:58:51;;;;;;;11.10;9.30;;;16.90;99.90;;;;;;5085304;28;20212;-80
2023/09/30 03:01:17;;;;;;;13.80;9.93;;;16.90;99.90;;;;;;5085993;28;20433;-81
2023/09/30 03:03:46;;;;;;;13.40;10.30;;;17.00;99.90;;;;;;5085706;28;20896;-80
2023/09/30 03:06:12;;;;;;;12.70;9.57;;;16.90;99.90;;;;;;5084621;28;20436;-80
2023/09/30 03:08:38;;;;;;;11.50;9.57;;;16.90;99.90;;;;;;5085784;28;20409;-80
2023/09/30 03:11:04;;;;;;;13.43;9.50;;;16.90;99.90;;;;;;5087371;28;20207;-80
2023/09/30 03:13:30;;;;;;;13.60;10.33;;;16.90;99.90;;;;;;5089965;28;20244;-80
2023/09/30 03:16:01;;;;;;;13.23;11.83;;;16.90;99.90;;;;;;5088364;28;20433;-80
2023/09/30 03:18:28;;;;;;;13.53;9.60;;;16.90;99.90;;;;;;5088783;28;20473;-81
2023/09/30 03:21:02;;;;;;;12.80;10.40;;;16.90;99.90;;;;;;5089709;28;20498;-80
2023/09/30 03:23:30;;;;;;;13.10;10.20;;;16.90;99.90;;;;;;5090369;28;20774;-81
2023/09/30 03:26:00;;;;;;;13.70;9.37;;;16.90;99.90;;;;;;5088219;28;20437;-80
2023/09/30 03:28:28;;;;;;;14.20;10.20;;;16.80;99.90;;;;;;5089675;28;20431;-80
2023/09/30 03:30:56;;;;;;;11.30;10.13;;;16.80;99.90;;;;;;5089266;28;20875;-80
2023/09/30 03:33:22;;;;;;;11.83;8.60;;;16.80;99.90;;;;;;5088163;28;20457;-80
2023/09/30 03:35:48;;;;;;;13.03;9.80;;;16.80;99.90;;;;;;5089194;28;20543;-80
2023/09/30 03:38:13;;;;;;;11.93;9.70;;;16.80;99.90;;;;;;5088405;28;20233;-81
2023/09/30 03:40:47;;;;;;;11.50;10.00;;;16.80;99.90;;;;;;5088823;28;20570;-79
2023/09/30 03:43:14;;;;;;;12.17;9.20;;;16.80;99.90;;;;;;5088287;28;20656;-80
2023/09/30 03:45:41;;;;;;;13.23;9.60;;;16.70;99.90;;;;;;5089368;28;20428;-80
2023/09/30 03:48:07;;;;;;;12.33;9.90;;;16.70;99.90;;;;;;5089113;28;20408;-80
2023/09/30 03:50:33;;;;;;;13.00;10.93;;;16.60;99.90;;;;;;5087727;28;20509;-81
2023/09/30 03:53:07;;;;;;;12.97;8.97;;;16.60;99.90;;;;;;5089071;28;20421;-79
2023/09/30 03:55:33;;;;;;;14.70;10.00;;;16.50;99.90;;;;;;5088995;28;20545;-80
2023/09/30 03:57:59;;;;;;;14.03;11.03;;;16.50;99.90;;;;;;5089033;28;20472;-79
2023/09/30 04:00:25;;;;;;;11.17;9.43;;;16.40;99.90;;;;;;5086876;28;20440;-79
2023/09/30 04:02:58;;;;;;;15.03;10.20;;;16.40;99.90;;;;;;5088645;28;20505;-80
2023/09/30 04:05:33;;;;;;;12.50;10.43;;;16.40;99.90;;;;;;5089042;28;20284;-79
2023/09/30 04:07:59;;;;;;;13.53;11.37;;;16.40;99.90;;;;;;5087362;28;20431;-80
2023/09/30 04:10:25;;;;;;;12.87;10.67;;;16.40;99.90;;;;;;5089057;28;20417;-81
2023/09/30 04:12:52;;;;;;;13.77;10.67;;;16.40;99.90;;;;;;5088622;28;20183;-80
2023/09/30 04:15:18;;;;;;;12.20;10.43;;;16.40;99.90;;;;;;5088566;28;20988;-80
2023/09/30 04:17:44;;;;;;;12.53;9.80;;;16.40;99.90;;;;;;5087554;28;20638;-81
2023/09/30 04:20:15;;;;;;;14.37;9.93;;;16.40;99.90;;;;;;5086986;28;21011;-81
2023/09/30 04:22:46;;;;;;;12.60;11.10;;;16.30;99.90;;;;;;5088202;28;20476;-80
2023/09/30 04:25:12;;;;;;;16.10;10.97;;;16.30;99.90;;;;;;5088655;28;20437;-81
2023/09/30 04:27:38;;;;;;;15.13;12.00;;;16.30;99.90;;;;;;5088755;28;20417;-79
2023/09/30 04:30:08;;;;;;;15.97;12.63;;;16.30;99.90;;;;;;5087939;28;20433;-80
2023/09/30 04:32:36;;;;;;;14.43;12.37;;;16.40;99.90;;;;;;5087203;28;20448;-80
2023/09/30 04:35:05;;;;;;;13.67;10.90;;;16.40;99.90;;;;;;5088141;28;20433;-80
2023/09/30 04:37:31;;;;;;;13.40;11.23;;;16.40;99.90;;;;;;5085925;28;20452;-79
2023/09/30 04:39:58;;;;;;;14.90;11.07;;;16.40;99.90;;;;;;5086291;28;20960;-80
2023/09/30 04:42:25;;;;;;;12.77;10.23;;;16.40;99.90;;;;;;5088540;28;20169;-79
2023/09/30 04:44:51;;;;;;;12.63;10.83;;;16.40;99.90;;;;;;5088331;28;20929;-80
2023/09/30 04:47:18;;;;;;;11.43;10.23;;;16.40;99.90;;;;;;5086973;28;20681;-80
2023/09/30 04:49:44;;;;;;;14.30;11.07;;;16.40;99.90;;;;;;5086404;28;20972;-79
2023/09/30 04:52:10;;;;;;;13.00;10.07;;;16.40;99.90;;;;;;5088192;28;20417;-80
2023/09/30 04:54:35;;;;;;;15.43;10.97;;;16.40;99.90;;;;;;5087701;28;20421;-81
2023/09/30 04:57:02;;;;;;;13.97;11.10;;;16.40;99.90;;;;;;5088081;28;20172;-79
2023/09/30 04:59:28;;;;;;;15.23;10.00;;;16.30;99.90;;;;;;5087410;28;20212;-79
2023/09/30 05:01:54;;;;;;;16.60;11.87;;;16.30;99.90;;;;;;5085671;28;20529;-80
2023/09/30 05:04:20;;;;;;;13.57;11.30;;;16.30;99.90;;;;;;5087408;28;20764;-80
2023/09/30 05:06:45;;;;;;;16.13;10.97;;;16.30;99.90;;;;;;5088011;28;20409;-81
2023/09/30 05:09:12;;;;;;;13.30;11.07;;;16.30;99.90;;;;;;5087023;28;20416;-80
2023/09/30 05:11:39;;;;;;;13.40;10.83;;;16.40;99.90;;;;;;5087526;28;20259;-80
2023/09/30 05:14:05;;;;;;;16.70;10.60;;;16.40;99.90;;;;;;5085960;28;20542;-82
2023/09/30 05:16:31;;;;;;;11.97;10.23;;;16.40;99.90;;;;;;5087872;28;20811;-82
2023/09/30 05:18:57;;;;;;;14.73;11.40;;;16.40;99.90;;;;;;5085732;28;20910;-81
2023/09/30 05:21:23;;;;;;;12.73;10.77;;;16.40;99.90;;;;;;5085741;28;20492;-81
2023/09/30 05:23:49;;;;;;;14.20;10.47;;;16.40;99.90;;;;;;5085591;28;20409;-82
2023/09/30 05:26:16;;;;;;;16.73;12.20;;;16.50;99.90;;;;;;5085887;28;20618;-81
2023/09/30 05:28:42;;;;;;;13.30;11.60;;;16.50;99.90;;;;;;5087169;28;20445;-81
2023/09/30 05:31:08;;;;;;;13.90;11.13;;;16.50;99.90;;;;;;5085891;28;20881;-80
2023/09/30 05:33:35;;;;;;;13.03;10.70;;;16.60;99.90;;;;;;5085731;28;20456;-81
2023/09/30 05:36:02;;;;;;;14.70;11.03;;;16.60;99.90;;;;;;5087200;28;20459;-80
2023/09/30 05:38:30;;;;;;;21.87;13.63;;;16.70;99.90;;;;;;5085862;28;20683;-80
2023/09/30 05:40:58;;;;;;;15.10;12.30;;;16.70;99.90;;;;;;5086870;28;20437;-81
2023/09/30 05:43:24;;;;;;;18.03;12.40;;;16.80;99.90;;;;;;5084754;28;20445;-80
2023/09/30 05:45:54;;;;;;;17.13;11.50;;;16.90;99.90;;;;;;5086731;28;20652;-81
2023/09/30 05:48:20;;;;;;;16.30;13.30;;;17.00;99.90;;;;;;5085779;28;20410;-81
2023/09/30 05:50:47;;;;;;;17.10;10.80;;;17.10;99.90;;;;;;5085306;28;20457;-81
2023/09/30 05:53:13;;;;;;;13.40;11.73;;;17.20;99.90;;;;;;5085234;28;20422;-81
2023/09/30 05:55:42;;;;;;;14.47;11.40;;;17.30;99.90;;;;;;5085323;28;20437;-81
2023/09/30 05:58:16;;;;;;;20.10;13.27;;;17.40;99.90;;;;;;5084998;28;20468;-81
2023/09/30 06:00:42;;;;;;;19.57;11.90;;;17.50;99.90;;;;;;5084815;28;20580;-81
2023/09/30 06:03:08;;;;;;;15.70;12.13;;;17.60;99.90;;;;;;5084678;28;20778;-81
2023/09/30 06:05:38;;;;;;;21.60;11.97;;;17.70;99.90;;;;;;5084855;28;20471;-82
2023/09/30 06:08:04;;;;;;;15.87;11.43;;;17.80;99.90;;;;;;5084999;28;20433;-81
2023/09/30 06:10:30;;;;;;;15.67;11.40;;;17.90;99.90;;;;;;5084147;28;20448;-82
2023/09/30 06:12:57;;;;;;;20.93;11.23;;;18.00;99.90;;;;;;5083762;28;20401;-82
2023/09/30 06:15:25;;;;;;;15.60;11.80;;;18.00;99.90;;;;;;5084581;28;20725;-81
2023/09/30 06:17:52;;;;;;;14.37;10.87;;;18.10;99.90;;;;;;5083273;28;20473;-81
2023/09/30 06:20:19;;;;;;;15.77;12.53;;;18.10;99.90;;;;;;5083175;28;20433;-82
2023/09/30 06:22:50;;;;;;;17.27;11.73;;;18.30;99.90;;;;;;5084669;28;20421;-82
2023/09/30 06:25:17;;;;;;;18.63;11.00;;;18.40;99.90;;;;;;5084366;28;20449;-82
2023/09/30 06:27:47;;;;;;;14.03;11.77;;;18.40;99.90;;;;;;5083391;28;20423;-82
2023/09/30 06:30:17;;;;;;;21.47;10.60;;;18.50;99.90;;;;;;5082867;28;20473;-81
2023/09/30 06:32:43;;;;;;;16.40;12.10;;;18.60;99.90;;;;;;5083341;28;20803;-82
2023/09/30 06:35:12;;;;;;;12.47;11.17;;;18.70;99.90;;;;;;5082692;28;20440;-81
2023/09/30 06:37:41;;;;;;;15.50;11.30;;;18.90;99.90;;;;;;5082740;28;20483;-82
2023/09/30 06:40:08;;;;;;;13.80;11.63;;;19.00;99.90;;;;;;5082873;28;20439;-82
2023/09/30 06:42:35;;;;;;;14.43;11.03;;;19.10;99.90;;;;;;5083953;28;20443;-82
2023/09/30 06:45:05;;;;;;;11.80;10.13;;;19.20;99.90;;;;;;5084458;28;21068;-82
2023/09/30 06:47:33;;;;;;;14.27;10.70;;;19.30;99.90;;;;;;5085995;28;20430;-82
2023/09/30 06:50:01;;;;;;;15.37;10.47;;;19.40;99.90;;;;;;5085627;28;20425;-82
2023/09/30 06:52:27;;;;;;;13.57;10.77;;;19.50;99.90;;;;;;5086050;28;20442;-82
2023/09/30 06:54:53;;;;;;;13.77;11.40;;;19.60;99.90;;;;;;5102880;28;20438;-82
2023/09/30 06:57:19;;;;;;;11.27;9.40;;;19.70;99.90;;;;;;5106110;28;20414;-82
2023/09/30 06:59:45;;;;;;;12.97;10.70;;;19.90;99.90;;;;;;5104474;28;20522;-82
2023/09/30 07:02:10;;;;;;;13.90;9.40;;;20.00;99.90;;;;;;5104062;28;20423;-82
2023/09/30 07:04:37;;;;;;;12.50;10.47;;;20.10;99.90;;;;;;5091307;28;20287;-82
2023/09/30 07:07:02;;;;;;;13.40;9.20;;;20.10;99.90;;;;;;5085846;28;20500;-82
2023/09/30 07:09:28;;;;;;;9.77;7.90;;;20.20;99.90;;;;;;5085431;28;20203;-82
2023/09/30 07:11:54;;;;;;;12.73;10.27;;;20.40;99.90;;;;;;5085386;28;20234;-83
2023/09/30 07:14:19;;;;;;;12.10;9.20;;;20.50;99.90;;;;;;5084160;28;20429;-82
2023/09/30 07:16:45;;;;;;;11.40;8.40;;;20.50;99.90;;;;;;5084085;28;20218;-80
2023/09/30 07:19:11;;;;;;;11.33;8.70;;;20.60;99.90;;;;;;5085288;28;20212;-82
2023/09/30 07:21:37;;;;;;;12.70;9.50;;;20.80;99.90;;;;;;5085014;28;20424;-82
2023/09/30 07:24:03;;;;;;;14.30;9.60;;;20.80;99.90;;;;;;5104306;28;20582;-82
2023/09/30 07:26:29;;;;;;;12.13;8.30;;;21.00;99.90;;;;;;5104389;28;20492;-82
2023/09/30 07:28:56;;;;;;;10.13;8.17;;;21.10;99.90;;;;;;5104049;28;20420;-82
2023/09/30 07:31:23;;;;;;;9.13;8.17;;;21.10;99.90;;;;;;5094026;28;20260;-82
2023/09/30 07:33:49;;;;;;;11.30;9.60;;;21.30;99.90;;;;;;5085062;28;20401;-82
2023/09/30 07:36:14;;;;;;;9.67;8.33;;;21.40;99.90;;;;;;5084223;28;20452;-81
2023/09/30 07:38:40;;;;;;;12.00;8.93;;;21.50;99.90;;;;;;5086037;28;20885;-81
2023/09/30 07:41:08;;;;;;;10.13;9.00;;;21.60;99.90;;;;;;5093857;28;20200;-82
2023/09/30 07:43:34;;;;;;;10.77;9.43;;;21.70;99.90;;;;;;5102772;28;20172;-82
2023/09/30 07:46:06;;;;;;;9.37;8.37;;;21.80;99.90;;;;;;5099408;28;20898;-79
2023/09/30 07:48:32;;;;;;;9.70;7.97;;;21.90;99.90;;;;;;5087881;28;20409;-79
2023/09/30 07:50:58;;;;;;;10.70;8.50;;;22.00;99.90;;;;;;5081263;28;20460;-81
2023/09/30 07:53:23;;;;;;;10.13;8.03;;;22.20;99.90;;;;;;5083377;28;20402;-81
2023/09/30 07:55:49;;;;;;;10.80;7.97;;;22.30;99.90;;;;;;5082964;28;20720;-81
2023/09/30 07:58:15;;;;;;;9.23;8.20;;;22.40;99.90;;;;;;5085557;28;20858;-82
2023/09/30 08:00:40;;;;;;;10.03;8.90;;;22.80;99.90;;;;;;5086416;28;20194;-78
2023/09/30 08:03:06;;;;;;;9.27;8.30;;;23.20;99.90;;;;;;5083470;28;20179;-84
2023/09/30 08:05:32;;;;;;;10.70;8.40;;;23.80;99.90;;;;;;5085864;28;20642;-82
2023/09/30 08:07:58;;;;;;;9.90;8.50;;;24.40;99.90;;;;;;5085737;28;20984;-80
2023/09/30 08:10:25;;;;;;;8.53;7.73;;;25.00;99.90;;;;;;5084197;28;20202;-79
2023/09/30 08:12:51;;;;;;;9.03;8.10;;;25.80;99.90;;;;;;5086350;28;20184;-80
2023/09/30 08:15:17;;;;;;;7.20;6.50;;;26.60;99.90;;;;;;5087236;28;20448;-81
2023/09/30 08:17:43;;;;;;;7.60;6.80;;;27.40;99.90;;;;;;5087027;28;20461;-82
2023/09/30 08:20:09;;;;;;;6.93;6.27;;;28.10;99.90;;;;;;5085604;28;20476;-78
2023/09/30 08:22:35;;;;;;;7.73;7.03;;;28.90;99.90;;;;;;5085443;28;20232;-84
2023/09/30 08:25:01;;;;;;;7.63;6.63;;;29.50;99.90;;;;;;5085636;28;20878;-80
2023/09/30 08:27:26;;;;;;;8.47;5.50;;;30.30;99.90;;;;;;5086396;28;20166;-80
2023/09/30 08:29:52;;;;;;;8.30;6.07;;;31.00;99.90;;;;;;5084563;28;20237;-81
2023/09/30 08:32:18;;;;;;;6.80;6.00;;;31.70;99.50;;;;;;5085974;28;20580;-81
2023/09/30 08:34:43;;;;;;;6.77;5.43;;;32.10;98.00;;;;;;5085509;28;20576;-79
2023/09/30 08:37:10;;;;;;;7.50;5.87;;;32.60;96.70;;;;;;5087097;28;20686;-81
2023/09/30 08:39:42;;;;;;;7.27;6.40;;;33.10;95.90;;;;;;5087129;28;20794;-83
2023/09/30 08:42:12;;;;;;;5.90;5.30;;;33.60;94.60;;;;;;5086753;28;20451;-80
2023/09/30 08:44:41;;;;;;;5.00;4.50;;;34.00;94.00;;;;;;5087125;28;21020;-78
2023/09/30 08:47:09;;;;;;;5.20;4.70;;;34.40;92.90;;;;;;5084158;28;20418;-78
2023/09/30 08:49:40;;;;;;;6.07;5.47;;;34.40;92.00;;;;;;5083398;28;20543;-83
2023/09/30 08:52:08;;;;;;;6.13;5.53;;;34.20;91.70;;;;;;5086049;28;20451;-78
2023/09/30 08:54:34;;;;;;;5.50;5.00;;;33.60;91.50;;;;;;5084313;28;20467;-82
2023/09/30 08:57:04;;;;;;;6.60;5.87;;;33.10;91.70;;;;;;5084856;28;20412;-80
2023/09/30 08:59:35;;;;;;;7.97;6.17;;;32.60;91.80;;;;;;5092136;28;20246;-79
2023/09/30 09:02:01;;;;;;;6.67;5.93;;;32.10;92.00;;;;;;5106774;28;21078;-80
2023/09/30 09:04:27;;;;;;;7.00;6.30;;;31.50;92.50;;;;;;5106879;28;20451;-76
2023/09/30 09:06:55;;;;;;;7.50;6.03;;;31.00;92.80;;;;;;5107247;28;20230;-83
2023/09/30 09:09:22;;;;;;;6.50;5.90;;;30.60;92.90;;;;;;5106050;28;20443;-80
2023/09/30 09:11:48;;;;;;;5.40;5.00;;;30.30;93.20;;;;;;5105950;28;20458;-80
2023/09/30 09:14:14;;;;;;;6.63;5.27;;;29.90;93.80;;;;;;5105695;28;20442;-81
2023/09/30 09:16:52;;;;;;;6.90;5.93;;;29.60;93.90;;;;;;5107530;28;20420;-82
2023/09/30 09:19:18;;;;;;;6.23;5.30;;;29.40;93.90;;;;;;5090570;28;20570;-80
2023/09/30 09:21:55;;;;;;;9.40;6.33;;;29.00;94.70;;;;;;5094062;28;20554;-83
2023/09/30 09:24:34;;;;;;;6.20;5.60;;;28.80;95.10;;;;;;5105483;28;20186;-83
2023/09/30 09:27:11;;;;;;;7.23;5.87;;;28.60;93.50;;;;;;5105615;28;20427;-82
2023/09/30 09:29:38;;;;;;;5.90;5.40;;;28.60;94.50;;;;;;5105437;28;20507;-85
2023/09/30 09:32:13;;;;;;;7.63;5.43;;;28.40;95.20;;;;;;5107148;28;20409;-83
2023/09/30 09:34:40;;;;;;;6.40;5.80;;;28.30;95.60;;;;;;5105666;28;20958;-80
2023/09/30 09:37:16;;;;;;;7.10;5.30;;;28.20;94.60;;;;;;5105547;28;20503;-76
2023/09/30 09:39:56;;;;;;;5.77;4.67;;;28.10;95.90;;;;;;5106810;28;20533;-78
2023/09/30 09:42:27;;;;;;;7.87;6.10;;;27.80;96.50;;;;;;5105023;28;20423;-84
2023/09/30 09:45:13;;;;;;;6.17;5.50;;;27.80;96.60;;;;;;5106374;28;20429;-82
2023/09/30 09:47:39;;;;;;;6.60;5.37;;;27.80;96.00;;;;;;5104001;28;20425;-80
2023/09/30 09:50:06;;;;;;;5.80;5.30;;;27.90;94.90;;;;;;5103728;28;20441;-79
2023/09/30 09:52:34;;;;;;;8.17;5.43;;;27.90;95.30;;;;;;5105895;28;20433;-86
2023/09/30 09:55:01;;;;;;;5.33;4.83;;;27.90;94.50;;;;;;5103583;28;20445;-83
2023/09/30 09:57:27;;;;;;;7.00;6.00;;;27.80;95.50;;;;;;5084822;28;21139;-81
2023/09/30 09:59:55;;;;;;;6.20;5.70;;;27.80;96.00;;;;;;5084709;28;21182;-81
2023/09/30 10:02:22;;;;;;;6.13;5.33;;;27.60;96.50;;;;;;5100124;28;20661;-82
2023/09/30 10:04:48;;;;;;;7.90;5.30;;;27.50;96.50;;;;;;5104370;28;21049;-80
2023/09/30 10:07:25;;;;;;;6.53;5.60;;;27.50;96.80;;;;;;5104695;28;20413;-79
2023/09/30 10:09:53;;;;;;;7.73;6.93;;;27.50;95.00;;;;;;5105593;28;20440;-81
2023/09/30 10:12:23;;;;;;;246.43;218.63;;;27.40;95.70;;;;;;5104663;28;20427;-79
2023/09/30 10:14:49;;;;;;;7.77;6.80;;;27.30;96.90;;;;;;5105373;28;20435;-83
2023/09/30 10:17:14;;;;;;;19.03;16.30;;;27.30;96.90;;;;;;5105471;28;20413;-79
2023/09/30 10:20:06;;;;;;;115.63;93.67;;;27.30;96.90;;;;;;5103382;28;20216;-76
2023/09/30 10:22:32;;;;;;;16.47;14.63;;;27.30;97.30;;;;;;5104395;28;20275;-79
2023/09/30 10:24:59;;;;;;;19.53;15.60;;;27.30;97.30;;;;;;5104181;28;20425;-77
2023/09/30 10:27:26;;;;;;;6.60;5.97;;;27.30;97.30;;;;;;5104475;28;20453;-80
2023/09/30 10:30:18;;;;;;;6.00;5.50;;;27.30;97.20;;;;;;5104588;28;20463;-82
2023/09/30 10:32:57;;;;;;;5.90;4.90;;;27.30;97.30;;;;;;5100326;28;20412;-80
2023/09/30 10:35:31;;;;;;;14.17;11.13;;;27.20;97.20;;;;;;5105316;28;20435;-81
2023/09/30 10:38:22;;;;;;;8.20;7.30;;;27.20;97.40;;;;;;5103015;28;20483;-78
2023/09/30 10:40:50;;;;;;;5.80;4.57;;;27.20;97.60;;;;;;5104969;28;20477;-81
2023/09/30 10:43:33;;;;;;;7.50;6.67;;;27.20;97.30;;;;;;5104887;28;20439;-80
2023/09/30 10:46:00;;;;;;;6.57;5.60;;;27.20;97.50;;;;;;5103786;28;20493;-76
2023/09/30 10:48:28;;;;;;;4.90;4.27;;;27.20;97.60;;;;;;5093137;28;21104;-79
2023/09/30 10:50:56;;;;;;;7.37;4.77;;;27.20;97.40;;;;;;5082961;28;20518;-83
2023/09/30 10:53:22;;;;;;;17.60;13.00;;;27.20;97.60;;;;;;5083985;28;20441;-79
2023/09/30 10:55:57;;;;;;;22.97;18.33;;;27.20;97.60;;;;;;5084669;28;20440;-80
2023/09/30 10:58:42;;;;;;;7.43;6.73;;;27.20;97.70;;;;;;5082957;28;20471;-78
2023/09/30 11:01:09;;;;;;;7.30;6.67;;;27.20;96.70;;;;;;5083287;28;20464;-81
2023/09/30 11:03:36;;;;;;;11.17;7.40;;;27.30;96.60;;;;;;5082254;28;20436;-77
2023/09/30 11:06:03;;;;;;;6.57;5.90;;;27.30;97.10;;;;;;5092258;28;20784;-83
2023/09/30 11:08:30;;;;;;;7.93;6.50;;;27.30;96.90;;;;;;5105017;28;20809;-78
2023/09/30 11:10:56;;;;;;;20.30;14.60;;;27.30;96.80;;;;;;5103190;28;20446;-81
2023/09/30 11:13:22;;;;;;;5.87;5.37;;;27.20;97.00;;;;;;5103718;28;20420;-83
2023/09/30 11:16:01;;;;;;;5.73;5.13;;;27.20;97.20;;;;;;5103051;28;20428;-79
2023/09/30 11:18:26;;;;;;;6.67;5.80;;;27.20;95.80;;;;;;5101144;28;20479;-81
2023/09/30 11:21:04;;;;;;;5.53;5.03;;;27.20;96.50;;;;;;5103298;28;20440;-87
2023/09/30 11:23:31;;;;;;;9.70;5.37;;;27.20;96.60;;;;;;5103437;28;20173;-84
2023/09/30 11:25:56;;;;;;;5.60;5.10;;;27.30;94.90;;;;;;5103164;28;20527;-83
2023/09/30 11:28:25;;;;;;;7.27;5.10;;;27.30;95.60;;;;;;5087285;28;20916;-84
2023/09/30 11:30:58;;;;;;;6.80;5.03;;;27.20;96.30;;;;;;5084296;28;20280;-84
2023/09/30 11:33:25;;;;;;;13.93;12.43;;;27.20;96.50;;;;;;5099025;28;21051;-84
2023/09/30 11:36:02;;;;;;;7.97;5.60;;;27.20;96.90;;;;;;5106909;28;20433;-82
2023/09/30 11:38:29;;;;;;;5.10;4.60;;;27.10;96.90;;;;;;5107413;28;20647;-80
2023/09/30 11:41:05;;;;;;;10.13;5.43;;;27.10;96.30;;;;;;5106597;28;20986;-85
2023/09/30 11:43:31;;;;;;;7.23;6.07;;;27.10;96.90;;;;;;5108317;28;20461;-80
2023/09/30 11:46:11;;;;;;;7.00;5.10;;;27.10;97.20;;;;;;5106740;28;20519;-81
2023/09/30 11:48:38;;;;;;;6.10;5.50;;;27.10;97.40;;;;;;5106799;28;20507;-81
2023/09/30 11:51:04;;;;;;;6.47;5.83;;;27.10;97.40;;;;;;5106724;28;20501;-85
2023/09/30 11:53:35;;;;;;;11.17;6.63;;;27.10;96.70;;;;;;5107935;28;20414;-79
2023/09/30 11:56:02;;;;;;;7.80;5.80;;;27.10;97.20;;;;;;5105341;28;20441;-76
2023/09/30 11:58:32;;;;;;;5.40;4.90;;;27.20;96.80;;;;;;5106033;28;20870;-79
2023/09/30 12:01:01;;;;;;;8.10;7.00;;;27.20;97.00;;;;;;5106362;28;20444;-78
2023/09/30 12:03:27;;;;;;;5.60;5.10;;;27.20;96.90;;;;;;5106731;28;21127;-81
2023/09/30 12:05:55;;;;;;;5.83;5.27;;;27.20;97.00;;;;;;5106146;28;20502;-77
2023/09/30 12:08:22;;;;;;;7.93;6.13;;;27.20;96.70;;;;;;5107801;28;20187;-83
2023/09/30 12:10:50;;;;;;;5.90;5.40;;;27.30;97.10;;;;;;5106903;28;20424;-80
2023/09/30 12:13:16;;;;;;;5.20;4.80;;;27.30;96.60;;;;;;5096885;28;20480;-83
2023/09/30 12:15:42;;;;;;;5.60;4.47;;;27.30;95.60;;;;;;5085917;28;20490;-83
2023/09/30 12:18:10;;;;;;;6.17;5.47;;;27.30;96.00;;;;;;5086546;28;20497;-79
2023/09/30 12:20:36;;;;;;;8.13;6.07;;;27.30;95.10;;;;;;5086493;28;20612;-81
2023/09/30 12:23:02;;;;;;;8.67;6.37;;;27.30;96.20;;;;;;5105278;28;20934;-81
2023/09/30 12:25:28;;;;;;;7.50;5.37;;;27.20;96.70;;;;;;5094121;28;20445;-81
2023/09/30 12:27:55;;;;;;;5.50;5.00;;;27.20;96.40;;;;;;5084214;28;20781;-80
2023/09/30 12:30:21;;;;;;;6.33;4.90;;;27.20;96.60;;;;;;5094679;28;20532;-81
2023/09/30 12:32:47;;;;;;;5.47;4.97;;;27.20;96.30;;;;;;5102749;28;20485;-80
2023/09/30 12:35:13;;;;;;;5.73;5.13;;;27.20;97.10;;;;;;5085449;28;20697;-80
2023/09/30 12:37:38;;;;;;;5.70;5.10;;;27.10;96.80;;;;;;5085088;28;21318;-80
2023/09/30 12:40:11;;;;;;;5.70;5.20;;;27.10;96.70;;;;;;5085227;28;20298;-80